Time;durP1;ratioP1;P1;durP2;ratioP2;P2;SDS_P1;SDS_P2;PMS_P1;PMS_P2;Temp;Humidity;BMP_temperature;BMP_pressure;BME280_temperature;BME280_humidity;BME280_pressure;Samples;Min_cycle;Max_cycle;Signal;HPM_P1;HPM_P2
2021/10/31 00:01:41;;;;;;;60.22;29.88;;;10.00;99.90;;;;;;4131914;28;20080;-79
2021/10/31 00:03:42;;;;;;;59.70;30.13;;;9.90;99.90;;;;;;4129828;28;20045;-79
2021/10/31 00:05:43;;;;;;;62.15;30.23;;;9.90;99.90;;;;;;4130902;28;20046;-79
2021/10/31 00:07:44;;;;;;;63.45;29.98;;;9.80;99.90;;;;;;4130517;28;20419;-79
2021/10/31 00:09:45;;;;;;;66.38;30.58;;;9.90;99.90;;;;;;4127220;28;20701;-79
2021/10/31 00:11:45;;;;;;;58.63;30.00;;;10.00;99.90;;;;;;4131209;28;20026;-79
2021/10/31 00:13:46;;;;;;;63.03;31.65;;;10.00;99.90;;;;;;4129822;28;20046;-78
2021/10/31 00:15:47;;;;;;;61.58;30.35;;;10.10;99.90;;;;;;4129528;28;20129;-78
2021/10/31 00:17:47;;;;;;;65.95;29.45;;;10.10;99.90;;;;;;4130888;28;20038;-78
2021/10/31 00:19:48;;;;;;;62.25;30.80;;;10.00;99.90;;;;;;4130739;28;20049;-78
2021/10/31 00:21:48;;;;;;;63.10;31.00;;;10.00;99.90;;;;;;4127641;28;20049;-78
2021/10/31 00:23:49;;;;;;;59.17;30.65;;;9.90;99.90;;;;;;4140098;28;20053;-78
2021/10/31 00:25:51;;;;;;;68.30;31.63;;;9.90;99.90;;;;;;4129890;28;20446;-77
2021/10/31 00:27:52;;;;;;;66.97;32.95;;;9.90;99.90;;;;;;4128241;28;20038;-78
2021/10/31 00:29:53;;;;;;;63.78;31.52;;;9.90;99.90;;;;;;4131458;28;20461;-78
2021/10/31 00:31:54;;;;;;;63.40;31.90;;;9.80;99.90;;;;;;4132015;28;20043;-78
2021/10/31 00:33:54;;;;;;;67.25;31.80;;;9.90;99.90;;;;;;4130392;28;20445;-77
2021/10/31 00:35:55;;;;;;;67.45;32.05;;;9.90;99.90;;;;;;4129107;28;20027;-78
2021/10/31 00:37:55;;;;;;;70.32;32.42;;;9.80;99.90;;;;;;4131474;28;20022;-79
2021/10/31 00:39:56;;;;;;;75.68;34.03;;;9.80;99.90;;;;;;4130964;28;20379;-78
2021/10/31 00:41:57;;;;;;;70.45;33.17;;;9.70;99.90;;;;;;4129598;28;20071;-78
2021/10/31 00:43:57;;;;;;;70.93;34.10;;;9.70;99.90;;;;;;4127634;28;20042;-78
2021/10/31 00:45:58;;;;;;;73.25;33.10;;;9.70;99.90;;;;;;4114358;28;20041;-79
2021/10/31 00:47:59;;;;;;;72.07;33.92;;;9.80;99.90;;;;;;4125455;28;20524;-79
2021/10/31 00:50:00;;;;;;;64.72;32.35;;;9.70;99.90;;;;;;4129316;28;20022;-79
2021/10/31 00:52:01;;;;;;;66.55;32.65;;;9.70;99.90;;;;;;4127176;28;20042;-79
2021/10/31 00:54:03;;;;;;;70.57;32.95;;;9.70;99.90;;;;;;4126035;28;20041;-79
2021/10/31 00:56:04;;;;;;;73.15;32.97;;;9.80;99.90;;;;;;4131358;28;20129;-79
2021/10/31 00:58:05;;;;;;;71.55;34.08;;;9.80;99.90;;;;;;4128733;28;20117;-79
2021/10/31 01:00:06;;;;;;;67.60;31.48;;;9.80;99.90;;;;;;4122765;28;20363;-79
2021/10/31 01:02:11;;;;;;;73.75;32.80;;;9.80;99.90;;;;;;4114774;28;20632;-79
2021/10/31 01:04:12;;;;;;;76.88;34.42;;;9.80;99.90;;;;;;4119292;28;20027;-79
2021/10/31 01:06:31;;;;;;;74.93;34.85;;;9.80;99.90;;;;;;4120694;28;20797;-79
2021/10/31 01:08:49;;;;;;;63.28;29.63;;;9.70;99.90;;;;;;4145826;28;20117;-78
2021/10/31 01:11:01;;;;;;;69.63;30.05;;;9.70;99.90;;;;;;4130934;28;20514;-78
2021/10/31 01:13:21;;;;;;;75.45;29.95;;;9.60;99.90;;;;;;4129971;28;20529;-78
2021/10/31 01:15:51;;;;;;;65.13;29.67;;;9.70;99.90;;;;;;4129243;28;20101;-79
2021/10/31 01:18:00;;;;;;;65.20;30.38;;;9.70;99.90;;;;;;4119144;28;20046;-79
2021/10/31 01:20:15;;;;;;;59.53;28.90;;;9.70;99.90;;;;;;4123494;28;20031;-79
2021/10/31 01:22:34;;;;;;;68.72;30.88;;;9.70;99.90;;;;;;4124933;28;20527;-79
2021/10/31 01:25:10;;;;;;;63.65;30.50;;;9.60;99.90;;;;;;4129813;28;20049;-79
2021/10/31 01:27:52;;;;;;;57.25;27.80;;;9.60;99.90;;;;;;4129091;28;20501;-79
2021/10/31 01:30:20;;;;;;;62.17;29.17;;;9.50;99.90;;;;;;4122947;28;20112;-79
2021/10/31 01:32:58;;;;;;;61.55;26.92;;;9.40;99.90;;;;;;4124514;28;20117;-79
2021/10/31 01:35:36;;;;;;;62.90;27.90;;;9.40;99.90;;;;;;4124159;28;20089;-79
2021/10/31 01:37:49;;;;;;;64.57;28.20;;;9.40;99.90;;;;;;4125685;28;20744;-79
2021/10/31 01:40:11;;;;;;;64.05;28.50;;;9.40;99.90;;;;;;4128534;28;20129;-79
2021/10/31 01:42:33;;;;;;;63.67;28.98;;;9.40;99.90;;;;;;4126498;28;20068;-79
2021/10/31 01:45:00;;;;;;;67.10;27.92;;;9.40;99.90;;;;;;4128413;28;20474;-79
2021/10/31 01:47:25;;;;;;;50.03;25.55;;;9.40;99.90;;;;;;4128241;28;20492;-79
2021/10/31 01:49:56;;;;;;;51.15;24.60;;;9.30;99.90;;;;;;4129835;28;20065;-79
2021/10/31 01:52:00;;;;;;;56.13;25.55;;;9.30;99.90;;;;;;4125562;28;20026;-79
2021/10/31 01:54:03;;;;;;;51.88;24.65;;;9.30;99.90;;;;;;4128060;28;20037;-79
2021/10/31 01:56:19;;;;;;;55.35;25.90;;;9.30;99.90;;;;;;4128836;28;20039;-79
2021/10/31 01:58:21;;;;;;;47.58;23.83;;;9.40;99.90;;;;;;4143186;28;20034;-79
2021/10/31 02:00:23;;;;;;;49.40;23.83;;;9.50;99.90;;;;;;4129639;28;20042;-79
2021/10/31 02:02:27;;;;;;;56.55;25.13;;;9.50;99.90;;;;;;4127050;28;20045;-79
2021/10/31 02:04:32;;;;;;;55.55;24.88;;;9.50;99.90;;;;;;4120426;28;20038;-79
2021/10/31 02:06:37;;;;;;;52.00;25.40;;;9.50;99.90;;;;;;4129349;28;20104;-79
2021/10/31 02:08:41;;;;;;;49.35;22.90;;;9.60;99.90;;;;;;4128598;28;20060;-79
2021/10/31 02:10:43;;;;;;;51.20;23.35;;;9.60;99.90;;;;;;4128933;28;20030;-79
2021/10/31 02:12:46;;;;;;;48.10;23.42;;;9.70;99.90;;;;;;4123080;28;20042;-79
2021/10/31 02:14:48;;;;;;;51.67;24.02;;;9.70;99.90;;;;;;4126247;28;20046;-79
2021/10/31 02:16:49;;;;;;;50.53;22.00;;;9.60;99.90;;;;;;4128593;28;20034;-79
2021/10/31 02:18:52;;;;;;;54.38;24.25;;;9.60;99.90;;;;;;4130035;28;20042;-79
2021/10/31 02:20:56;;;;;;;48.70;20.85;;;9.50;99.90;;;;;;4129186;28;20399;-79
2021/10/31 02:23:00;;;;;;;45.03;21.50;;;9.50;99.90;;;;;;4114574;28;20094;-79
2021/10/31 02:25:02;;;;;;;44.65;21.85;;;9.60;99.90;;;;;;4128859;28;20161;-79
2021/10/31 02:27:21;;;;;;;43.45;18.13;;;9.60;99.90;;;;;;4128731;28;20042;-79
2021/10/31 02:29:21;;;;;;;42.58;21.67;;;9.60;99.90;;;;;;4127508;28;20046;-79
2021/10/31 02:31:22;;;;;;;39.10;19.48;;;9.60;99.90;;;;;;4126144;28;20474;-79
2021/10/31 02:33:23;;;;;;;50.85;22.15;;;9.50;99.90;;;;;;4129457;28;20030;-79
2021/10/31 02:35:24;;;;;;;52.05;24.00;;;9.40;99.90;;;;;;4129027;28;20490;-79
2021/10/31 02:37:25;;;;;;;50.60;23.35;;;9.40;99.90;;;;;;4129528;28;20061;-79
2021/10/31 02:39:26;;;;;;;47.70;22.08;;;9.30;99.90;;;;;;4123410;28;20043;-79
2021/10/31 02:41:29;;;;;;;58.22;21.92;;;9.30;99.90;;;;;;4128493;28;20034;-79
2021/10/31 02:43:30;;;;;;;49.15;22.50;;;9.30;99.90;;;;;;4123151;28;20050;-79
2021/10/31 02:45:31;;;;;;;49.20;22.67;;;9.30;99.90;;;;;;4126673;28;20371;-79
2021/10/31 02:47:46;;;;;;;46.22;21.88;;;9.30;99.90;;;;;;4130515;28;20069;-79
2021/10/31 02:49:47;;;;;;;48.33;21.25;;;9.20;99.90;;;;;;4128604;28;20033;-79
2021/10/31 02:51:59;;;;;;;47.35;22.88;;;9.30;99.90;;;;;;4127668;28;20544;-79
2021/10/31 02:54:20;;;;;;;47.83;22.63;;;9.30;99.90;;;;;;4114567;28;20554;-80
2021/10/31 02:56:39;;;;;;;53.38;23.15;;;9.40;99.90;;;;;;4143549;28;20050;-79
2021/10/31 02:58:39;;;;;;;48.05;22.23;;;9.30;99.90;;;;;;4130038;28;20061;-79
2021/10/31 03:00:41;;;;;;;46.08;22.00;;;9.30;99.90;;;;;;4127518;28;20054;-79
2021/10/31 03:02:42;;;;;;;50.92;22.08;;;9.30;99.90;;;;;;4130338;28;20110;-79
2021/10/31 03:04:44;;;;;;;44.72;23.33;;;9.40;99.90;;;;;;4129394;28;20073;-79
2021/10/31 03:06:45;;;;;;;47.50;21.27;;;9.40;99.90;;;;;;4132374;28;20362;-78
2021/10/31 03:08:46;;;;;;;42.83;21.50;;;9.40;99.90;;;;;;4133009;28;20544;-78
2021/10/31 03:10:52;;;;;;;44.22;21.85;;;9.40;99.90;;;;;;4133142;28;20105;-78
2021/10/31 03:12:53;;;;;;;49.33;21.45;;;9.30;99.90;;;;;;4131878;28;20490;-79
2021/10/31 03:14:54;;;;;;;51.35;23.33;;;9.30;99.90;;;;;;4130346;28;20038;-79
2021/10/31 03:16:55;;;;;;;45.25;21.83;;;9.30;99.90;;;;;;4132676;28;20089;-78
2021/10/31 03:18:56;;;;;;;50.40;22.58;;;9.30;99.90;;;;;;4132990;28;20035;-79
2021/10/31 03:20:56;;;;;;;52.25;23.20;;;9.30;99.90;;;;;;4117236;28;20049;-79
2021/10/31 03:22:57;;;;;;;53.53;23.65;;;9.20;99.90;;;;;;4130344;28;20031;-79
2021/10/31 03:24:58;;;;;;;51.40;22.77;;;9.20;99.90;;;;;;4132874;28;20030;-77
2021/10/31 03:26:59;;;;;;;52.95;23.13;;;9.10;99.90;;;;;;4131048;28;20034;-78
2021/10/31 03:29:03;;;;;;;52.80;23.45;;;9.10;99.90;;;;;;4131588;28;20030;-78
2021/10/31 03:31:03;;;;;;;55.33;22.17;;;9.10;99.90;;;;;;4126202;28;20040;-78
2021/10/31 03:33:04;;;;;;;46.53;22.77;;;9.00;99.90;;;;;;4117857;28;20026;-78
2021/10/31 03:35:06;;;;;;;56.10;22.80;;;9.00;99.90;;;;;;4129706;28;20034;-78
2021/10/31 03:37:06;;;;;;;45.15;21.88;;;9.10;99.90;;;;;;4131962;28;20037;-79
2021/10/31 03:39:07;;;;;;;53.83;26.33;;;9.20;99.90;;;;;;4124395;28;20133;-79
2021/10/31 03:41:08;;;;;;;52.25;23.90;;;9.20;99.90;;;;;;4136517;28;20415;-79
2021/10/31 03:43:09;;;;;;;49.90;23.10;;;9.20;99.90;;;;;;4129732;28;20041;-79
2021/10/31 03:45:11;;;;;;;59.03;23.83;;;9.20;99.90;;;;;;4129378;28;20417;-79
2021/10/31 03:47:11;;;;;;;48.80;24.13;;;9.30;99.90;;;;;;4122069;28;20107;-78
2021/10/31 03:49:13;;;;;;;54.65;22.40;;;9.30;99.90;;;;;;4121965;28;20096;-78
2021/10/31 03:51:14;;;;;;;47.10;23.05;;;9.30;99.90;;;;;;4130866;28;20088;-79
2021/10/31 03:53:14;;;;;;;52.28;24.38;;;9.20;99.90;;;;;;4131697;28;20034;-79
2021/10/31 03:55:16;;;;;;;48.83;24.42;;;9.30;99.90;;;;;;4131820;28;20027;-78
2021/10/31 03:57:17;;;;;;;50.63;22.60;;;9.30;99.90;;;;;;4132475;28;20154;-79
2021/10/31 03:59:18;;;;;;;50.85;23.08;;;9.40;99.90;;;;;;4130660;28;20569;-79
2021/10/31 04:01:18;;;;;;;49.70;23.33;;;9.40;99.90;;;;;;4128573;28;20031;-79
2021/10/31 04:03:19;;;;;;;52.88;22.90;;;9.30;99.90;;;;;;4118821;28;20031;-79
2021/10/31 04:05:19;;;;;;;53.30;23.95;;;9.20;99.90;;;;;;4143312;28;20026;-79
2021/10/31 04:07:20;;;;;;;49.20;22.83;;;9.20;99.90;;;;;;4118528;28;20077;-79
2021/10/31 04:09:21;;;;;;;46.50;23.38;;;9.20;99.90;;;;;;4126583;28;20038;-79
2021/10/31 04:11:22;;;;;;;55.25;23.88;;;9.20;99.90;;;;;;4132429;28;20031;-79
2021/10/31 04:13:22;;;;;;;56.55;24.35;;;9.20;99.90;;;;;;4131278;28;20026;-79
2021/10/31 04:15:23;;;;;;;51.58;23.20;;;9.10;99.90;;;;;;4129843;28;20153;-79
2021/10/31 04:17:24;;;;;;;52.33;24.30;;;9.10;99.90;;;;;;4129286;28;20054;-78
2021/10/31 04:19:24;;;;;;;46.10;23.88;;;9.00;99.90;;;;;;4132373;28;20030;-78
2021/10/31 04:21:25;;;;;;;55.08;24.83;;;8.90;99.90;;;;;;4131993;28;20046;-79
2021/10/31 04:23:27;;;;;;;51.15;23.88;;;8.80;99.90;;;;;;4116861;28;20065;-78
2021/10/31 04:25:27;;;;;;;56.83;24.40;;;8.80;99.90;;;;;;4130799;28;20092;-79
2021/10/31 04:27:29;;;;;;;53.00;24.75;;;8.70;99.90;;;;;;4132154;28;20030;-78
2021/10/31 04:29:29;;;;;;;55.30;24.15;;;8.70;99.90;;;;;;4132485;28;20110;-78
2021/10/31 04:31:30;;;;;;;56.63;23.98;;;8.70;99.90;;;;;;4129659;28;20055;-79
2021/10/31 04:33:31;;;;;;;53.63;22.95;;;8.60;99.90;;;;;;4129763;28;20064;-78
2021/10/31 04:35:32;;;;;;;59.85;25.05;;;8.60;99.90;;;;;;4132144;28;20031;-78
2021/10/31 04:37:36;;;;;;;54.90;25.20;;;8.50;99.90;;;;;;4129008;28;20043;-79
2021/10/31 04:39:37;;;;;;;58.83;24.38;;;8.50;99.90;;;;;;4130020;28;20122;-78
2021/10/31 04:41:38;;;;;;;57.95;25.20;;;8.40;99.90;;;;;;4122426;28;20051;-78
2021/10/31 04:43:39;;;;;;;69.60;25.58;;;8.40;99.90;;;;;;4123826;28;20429;-79
2021/10/31 04:45:44;;;;;;;57.30;23.40;;;8.40;99.90;;;;;;4127650;28;20122;-79
2021/10/31 04:47:45;;;;;;;59.95;25.83;;;8.30;99.90;;;;;;4142326;28;20030;-79
2021/10/31 04:49:46;;;;;;;63.45;27.13;;;8.30;99.90;;;;;;4129890;28;20069;-79
2021/10/31 04:51:46;;;;;;;70.38;28.25;;;8.30;99.90;;;;;;4130235;28;20037;-79
2021/10/31 04:53:47;;;;;;;62.90;25.90;;;8.30;99.90;;;;;;4127073;28;20073;-78
2021/10/31 04:55:47;;;;;;;61.10;25.77;;;8.30;99.90;;;;;;4128815;28;20026;-78
2021/10/31 04:57:48;;;;;;;61.53;27.15;;;8.30;99.90;;;;;;4128975;28;20018;-78
2021/10/31 04:59:49;;;;;;;70.70;27.40;;;8.20;99.90;;;;;;4129237;28;20125;-78
2021/10/31 05:01:49;;;;;;;54.63;25.92;;;8.20;99.90;;;;;;4128982;28;20035;-78
2021/10/31 05:03:50;;;;;;;64.78;28.40;;;8.20;99.90;;;;;;4129289;28;20038;-79
2021/10/31 05:05:51;;;;;;;61.40;27.38;;;8.20;99.90;;;;;;4146842;28;20022;-79
2021/10/31 05:07:55;;;;;;;68.22;28.15;;;8.20;99.90;;;;;;4130318;28;20026;-79
2021/10/31 05:09:55;;;;;;;68.25;29.52;;;8.20;99.90;;;;;;4114389;28;20127;-79
2021/10/31 05:11:56;;;;;;;71.45;29.10;;;8.30;99.90;;;;;;4129549;28;20517;-79
2021/10/31 05:13:57;;;;;;;68.43;27.67;;;8.30;99.90;;;;;;4130082;28;20041;-79
2021/10/31 05:15:58;;;;;;;70.30;29.77;;;8.20;99.90;;;;;;4127590;28;20035;-78
2021/10/31 05:17:58;;;;;;;61.60;26.10;;;8.20;99.90;;;;;;4130417;28;20125;-79
2021/10/31 05:19:59;;;;;;;67.72;28.00;;;8.10;99.90;;;;;;4126921;28;20422;-79
2021/10/31 05:22:00;;;;;;;75.72;30.15;;;8.10;99.90;;;;;;4131745;28;20031;-79
2021/10/31 05:24:00;;;;;;;72.47;27.95;;;8.10;99.90;;;;;;4125234;28;20305;-79
2021/10/31 05:26:02;;;;;;;67.45;27.75;;;8.00;99.90;;;;;;4116944;28;20054;-78
2021/10/31 05:28:03;;;;;;;77.75;29.70;;;8.00;99.90;;;;;;4128657;28;20125;-79
2021/10/31 05:30:05;;;;;;;77.78;28.75;;;8.10;99.90;;;;;;4129401;28;20034;-79
2021/10/31 05:32:06;;;;;;;72.70;27.65;;;8.00;99.90;;;;;;4127685;28;20057;-79
2021/10/31 05:34:07;;;;;;;76.93;30.60;;;8.00;99.90;;;;;;4131383;28;20041;-78
2021/10/31 05:36:07;;;;;;;76.72;29.50;;;8.10;99.90;;;;;;4129430;28;20045;-78
2021/10/31 05:38:10;;;;;;;69.32;28.67;;;8.10;99.90;;;;;;4129819;28;20023;-79
2021/10/31 05:40:13;;;;;;;74.15;31.13;;;8.10;99.90;;;;;;4129745;28;20038;-78
2021/10/31 05:42:14;;;;;;;78.28;28.92;;;8.10;99.90;;;;;;4131453;28;20026;-78
2021/10/31 05:44:14;;;;;;;73.45;29.40;;;8.10;99.90;;;;;;4129811;28;20470;-78
2021/10/31 05:46:15;;;;;;;79.55;30.98;;;8.10;99.90;;;;;;4128203;28;20145;-78
2021/10/31 05:48:16;;;;;;;79.38;29.45;;;8.10;99.90;;;;;;4128798;28;20026;-78
2021/10/31 05:50:17;;;;;;;80.55;30.20;;;8.10;99.90;;;;;;4126958;28;20035;-79
2021/10/31 05:52:18;;;;;;;74.13;29.95;;;8.10;99.90;;;;;;4129417;28;20045;-79
2021/10/31 05:54:19;;;;;;;68.30;28.40;;;8.00;99.90;;;;;;4127791;28;20113;-78
2021/10/31 05:56:20;;;;;;;68.85;29.00;;;8.00;99.90;;;;;;4114924;28;20114;-78
2021/10/31 05:58:20;;;;;;;77.72;29.60;;;8.00;99.90;;;;;;4128488;28;22738;-79
2021/10/31 06:00:21;;;;;;;70.95;29.13;;;8.00;99.90;;;;;;4129104;28;20129;-79
2021/10/31 06:02:22;;;;;;;67.90;29.50;;;8.00;99.90;;;;;;4138597;28;20034;-79
2021/10/31 06:04:25;;;;;;;80.57;30.17;;;8.00;99.90;;;;;;4115691;28;20074;-79
2021/10/31 06:06:26;;;;;;;;;;;8.10;99.90;;;;;;4145271;28;20088;-79
2021/10/31 06:08:27;;;;;;;72.15;30.48;;;8.10;99.90;;;;;;4127031;28;20282;-79
2021/10/31 06:10:28;;;;;;;73.38;29.17;;;8.10;99.90;;;;;;4122832;28;20027;-78
2021/10/31 06:12:29;;;;;;;71.18;28.83;;;8.10;99.90;;;;;;4117561;28;20038;-78
2021/10/31 06:14:37;;;;;;;74.45;31.10;;;8.20;99.90;;;;;;4128865;28;20034;-79
2021/10/31 06:16:38;;;;;;;79.13;31.15;;;8.20;99.90;;;;;;4127740;28;20134;-79
2021/10/31 06:18:40;;;;;;;74.15;29.80;;;8.20;99.90;;;;;;4120654;28;20672;-79
2021/10/31 06:20:41;;;;;;;72.25;31.50;;;8.20;99.90;;;;;;4136251;28;20042;-79
2021/10/31 06:22:42;;;;;;;75.50;29.08;;;8.20;99.90;;;;;;4117750;28;20483;-79
2021/10/31 06:24:43;;;;;;;89.35;32.60;;;8.20;99.90;;;;;;4139757;28;20030;-79
2021/10/31 06:26:43;;;;;;;83.35;32.15;;;8.30;99.90;;;;;;4117954;28;20442;-79
2021/10/31 06:28:44;;;;;;;76.72;30.65;;;8.30;99.90;;;;;;4125869;28;20041;-79
2021/10/31 06:30:44;;;;;;;82.75;31.15;;;8.20;99.90;;;;;;4127891;28;20034;-79
2021/10/31 06:32:45;;;;;;;76.60;26.30;;;8.20;99.90;;;;;;4126411;28;20042;-79
2021/10/31 06:34:46;;;;;;;86.47;33.20;;;8.20;99.90;;;;;;4130039;28;20088;-79
2021/10/31 06:36:47;;;;;;;93.30;33.35;;;8.20;99.90;;;;;;4123626;28;20042;-79
2021/10/31 06:38:47;;;;;;;89.45;33.55;;;8.20;99.90;;;;;;4115495;28;20105;-79
2021/10/31 06:40:48;;;;;;;93.97;33.75;;;8.20;99.90;;;;;;4127425;28;20531;-79
2021/10/31 06:42:49;;;;;;;79.38;32.97;;;8.10;99.90;;;;;;4116089;28;20031;-79
2021/10/31 06:44:49;;;;;;;80.82;33.13;;;8.00;99.90;;;;;;4133003;28;20038;-78
2021/10/31 06:46:50;;;;;;;85.43;34.20;;;8.10;99.90;;;;;;4129193;28;20757;-79
2021/10/31 06:48:52;;;;;;;87.07;32.88;;;8.10;99.90;;;;;;4132769;28;20375;-78
2021/10/31 06:50:54;;;;;;;90.65;34.05;;;8.00;99.90;;;;;;4130023;28;20112;-79
2021/10/31 06:52:54;;;;;;;87.95;35.22;;;8.00;99.90;;;;;;4131095;28;20042;-79
2021/10/31 06:54:56;;;;;;;91.28;33.53;;;8.00;99.90;;;;;;4129107;28;20062;-79
2021/10/31 06:56:57;;;;;;;91.45;34.97;;;8.00;99.90;;;;;;4130166;28;20121;-79
2021/10/31 06:58:58;;;;;;;85.97;32.90;;;8.10;99.90;;;;;;4122597;28;20030;-79
2021/10/31 07:00:59;;;;;;;82.38;36.50;;;8.10;99.90;;;;;;4122992;28;20133;-78
2021/10/31 07:03:00;;;;;;;86.38;34.83;;;8.10;99.90;;;;;;4129491;28;20062;-78
2021/10/31 07:05:01;;;;;;;86.60;32.92;;;8.20;99.90;;;;;;4123895;28;20560;-79
2021/10/31 07:07:02;;;;;;;83.35;35.67;;;8.20;99.90;;;;;;4119545;28;20596;-78
2021/10/31 07:09:03;;;;;;;78.35;32.65;;;8.20;99.90;;;;;;4123749;28;20165;-78
2021/10/31 07:11:04;;;;;;;77.75;33.70;;;8.30;99.90;;;;;;4123779;28;20062;-78
2021/10/31 07:13:05;;;;;;;86.35;33.80;;;8.30;99.90;;;;;;4137915;28;20056;-79
2021/10/31 07:15:06;;;;;;;72.00;32.67;;;8.40;99.90;;;;;;4125116;28;20031;-79
2021/10/31 07:17:07;;;;;;;86.10;35.38;;;8.40;99.90;;;;;;4123632;28;20069;-79
2021/10/31 07:19:08;;;;;;;74.60;34.00;;;8.40;99.90;;;;;;4125071;28;20537;-79
2021/10/31 07:21:09;;;;;;;78.72;35.20;;;8.50;99.90;;;;;;4118590;28;20023;-79
2021/10/31 07:23:09;;;;;;;83.50;34.13;;;8.50;99.90;;;;;;4127210;28;20502;-78
2021/10/31 07:25:11;;;;;;;76.22;34.60;;;8.50;99.90;;;;;;4118786;28;20471;-78
2021/10/31 07:27:12;;;;;;;76.68;32.35;;;8.60;99.90;;;;;;4129152;28;20030;-79
2021/10/31 07:29:13;;;;;;;79.35;34.72;;;8.60;99.90;;;;;;4131107;28;20033;-79
2021/10/31 07:31:15;;;;;;;86.43;37.78;;;8.60;99.90;;;;;;4126271;28;20072;-79
2021/10/31 07:33:16;;;;;;;90.15;37.72;;;8.70;99.90;;;;;;4118942;28;20023;-79
2021/10/31 07:35:17;;;;;;;94.78;40.67;;;8.70;99.90;;;;;;4128290;28;20040;-79
2021/10/31 07:37:20;;;;;;;111.60;42.58;;;8.80;99.90;;;;;;4117445;28;20058;-80
2021/10/31 07:39:21;;;;;;;103.03;41.58;;;8.90;99.90;;;;;;4127849;28;20046;-79
2021/10/31 07:41:22;;;;;;;99.63;43.00;;;8.90;99.90;;;;;;4119592;28;20027;-79
2021/10/31 07:43:23;;;;;;;89.75;40.20;;;9.00;99.90;;;;;;4123994;28;20502;-78
2021/10/31 07:45:24;;;;;;;93.95;42.33;;;9.10;99.90;;;;;;4118541;28;20049;-80
2021/10/31 07:47:25;;;;;;;92.15;41.97;;;9.20;99.90;;;;;;4124529;28;20109;-80
2021/10/31 07:49:26;;;;;;;91.20;40.88;;;9.30;99.90;;;;;;4121612;28;20114;-79
2021/10/31 07:51:26;;;;;;;84.80;38.88;;;9.30;99.90;;;;;;4123165;28;20043;-79
2021/10/31 07:53:27;;;;;;;99.10;41.72;;;9.30;99.90;;;;;;4118753;28;20035;-79
2021/10/31 07:55:31;;;;;;;81.65;39.88;;;9.40;99.90;;;;;;4122184;28;20132;-79
2021/10/31 07:57:33;;;;;;;84.28;38.85;;;9.40;99.90;;;;;;4125004;28;20026;-79
2021/10/31 07:59:34;;;;;;;95.28;40.13;;;9.50;99.90;;;;;;4119926;28;20043;-80
2021/10/31 08:01:35;;;;;;;89.28;37.63;;;9.50;99.90;;;;;;4119193;28;20049;-79
2021/10/31 08:03:36;;;;;;;97.40;42.60;;;9.60;99.90;;;;;;4129262;28;20040;-79
2021/10/31 08:05:38;;;;;;;80.20;38.10;;;9.60;99.90;;;;;;4125660;28;20121;-79
2021/10/31 08:07:39;;;;;;;84.38;40.38;;;9.60;99.90;;;;;;4121078;28;20034;-79
2021/10/31 08:09:40;;;;;;;83.75;40.13;;;9.70;99.90;;;;;;4122568;28;20047;-79
2021/10/31 08:11:42;;;;;;;84.10;38.63;;;9.70;99.90;;;;;;4130524;28;20115;-79
2021/10/31 08:13:45;;;;;;;79.30;37.92;;;9.80;99.90;;;;;;4125493;28;20034;-79
2021/10/31 08:15:45;;;;;;;69.53;34.53;;;9.80;99.90;;;;;;4132882;28;20482;-79
2021/10/31 08:17:46;;;;;;;84.20;40.20;;;9.90;99.90;;;;;;4125482;28;20117;-79
2021/10/31 08:19:47;;;;;;;74.35;36.40;;;10.00;99.90;;;;;;4121035;28;20494;-79
2021/10/31 08:21:48;;;;;;;77.35;36.25;;;10.10;99.90;;;;;;4128119;28;20034;-79
2021/10/31 08:23:49;;;;;;;82.78;37.08;;;10.10;99.90;;;;;;4121099;28;20518;-79
2021/10/31 08:25:50;;;;;;;77.90;37.67;;;10.30;99.90;;;;;;4124903;28;20030;-79
2021/10/31 08:27:53;;;;;;;79.00;37.95;;;10.40;99.90;;;;;;4119680;28;20421;-79
2021/10/31 08:29:53;;;;;;;65.47;34.47;;;10.50;99.90;;;;;;4127226;28;20070;-79
2021/10/31 08:31:55;;;;;;;80.28;36.65;;;10.60;99.90;;;;;;4118659;28;20903;-79
2021/10/31 08:33:59;;;;;;;81.85;37.40;;;10.70;99.90;;;;;;4124232;28;20500;-79
2021/10/31 08:35:59;;;;;;;;;;;10.80;99.90;;;;;;4131354;28;20053;-79
2021/10/31 08:38:01;;;;;;;65.30;31.95;;;10.90;99.90;;;;;;4130315;28;20366;-79
2021/10/31 08:40:03;;;;;;;62.22;30.55;;;10.80;99.90;;;;;;4127045;28;20466;-79
2021/10/31 08:42:04;;;;;;;60.17;30.50;;;10.90;99.90;;;;;;4125105;28;20034;-79
2021/10/31 08:44:06;;;;;;;63.92;31.95;;;10.80;99.90;;;;;;4145129;28;20044;-80
2021/10/31 08:46:06;;;;;;;60.50;31.33;;;10.90;99.90;;;;;;4126352;28;20050;-79
2021/10/31 08:48:08;;;;;;;54.53;28.02;;;11.00;99.90;;;;;;4128992;28;20117;-79
2021/10/31 08:50:09;;;;;;;54.28;30.58;;;10.90;99.90;;;;;;4126090;28;20034;-80
2021/10/31 08:52:10;;;;;;;49.50;27.80;;;11.00;99.90;;;;;;4121586;28;20042;-79
2021/10/31 08:54:10;;;;;;;53.97;29.40;;;11.00;99.90;;;;;;4128553;28;20152;-79
2021/10/31 08:56:12;;;;;;;48.15;27.38;;;11.10;99.90;;;;;;4128793;28;20046;-79
2021/10/31 08:58:13;;;;;;;49.15;27.75;;;11.10;99.90;;;;;;4129364;28;20098;-79
2021/10/31 09:00:14;;;;;;;41.53;25.20;;;11.10;99.90;;;;;;4119628;28;20038;-79
2021/10/31 09:02:15;;;;;;;48.78;27.67;;;11.10;99.90;;;;;;4126429;28;20475;-79
2021/10/31 09:04:15;;;;;;;42.25;26.23;;;11.10;99.90;;;;;;4119272;28;20037;-79
2021/10/31 09:06:16;;;;;;;41.75;25.75;;;11.10;99.90;;;;;;4128887;28;20026;-79
2021/10/31 09:08:17;;;;;;;39.13;23.70;;;11.10;99.90;;;;;;4132084;28;20108;-78
2021/10/31 09:10:18;;;;;;;38.55;24.77;;;11.20;99.90;;;;;;4129679;28;20480;-78
2021/10/31 09:12:18;;;;;;;40.53;23.17;;;11.30;99.90;;;;;;4128643;28;20044;-78
2021/10/31 09:14:19;;;;;;;37.95;24.35;;;11.40;99.90;;;;;;4131304;28;20164;-79
2021/10/31 09:16:20;;;;;;;34.13;23.35;;;11.50;99.90;;;;;;4128403;28;20042;-78
2021/10/31 09:18:23;;;;;;;35.45;22.85;;;11.50;99.90;;;;;;4129127;28;20074;-79
2021/10/31 09:20:25;;;;;;;35.00;23.80;;;11.60;99.90;;;;;;4122082;28;20387;-79
2021/10/31 09:22:27;;;;;;;35.75;23.30;;;11.70;99.90;;;;;;4123203;28;20525;-78
2021/10/31 09:24:28;;;;;;;31.20;22.75;;;11.80;99.90;;;;;;4126988;28;20766;-79
2021/10/31 09:26:29;;;;;;;29.73;23.02;;;11.90;99.90;;;;;;4129433;28;20122;-79
2021/10/31 09:28:30;;;;;;;34.72;22.70;;;12.00;99.90;;;;;;4127202;28;20036;-79
2021/10/31 09:30:34;;;;;;;36.35;24.35;;;12.00;99.90;;;;;;4117690;28;20035;-79
2021/10/31 09:32:40;;;;;;;28.45;21.20;;;12.10;99.90;;;;;;4123290;28;20050;-79
2021/10/31 09:34:43;;;;;;;32.03;22.67;;;12.20;99.90;;;;;;4117931;28;20438;-79
2021/10/31 09:36:44;;;;;;;32.00;22.13;;;12.30;99.90;;;;;;4130111;28;20054;-79
2021/10/31 09:38:45;;;;;;;29.88;21.65;;;12.50;99.90;;;;;;4130325;28;20471;-79
2021/10/31 09:40:47;;;;;;;35.20;23.20;;;12.80;99.90;;;;;;4126942;28;20045;-79
2021/10/31 09:42:49;;;;;;;29.92;18.98;;;12.80;99.90;;;;;;4126704;28;20057;-79
2021/10/31 09:44:50;;;;;;;27.02;21.17;;;13.00;99.90;;;;;;4126235;28;20043;-79
2021/10/31 09:46:52;;;;;;;26.30;20.10;;;13.40;99.90;;;;;;4125520;28;20066;-79
2021/10/31 09:48:53;;;;;;;28.85;20.30;;;13.60;99.90;;;;;;4128689;28;20034;-79
2021/10/31 09:50:53;;;;;;;32.92;21.60;;;13.80;99.90;;;;;;4128477;28;20199;-78
2021/10/31 09:52:55;;;;;;;25.13;20.65;;;14.20;99.90;;;;;;4125563;28;20495;-78
2021/10/31 09:54:56;;;;;;;33.33;20.70;;;14.40;99.90;;;;;;4120619;28;20038;-78
2021/10/31 09:56:57;;;;;;;19.77;17.73;;;14.70;99.90;;;;;;4127918;28;20038;-79
2021/10/31 09:58:59;;;;;;;20.42;16.40;;;14.80;99.90;;;;;;4130187;28;23252;-79
2021/10/31 10:01:05;;;;;;;17.48;15.23;;;14.80;99.90;;;;;;4124380;28;20146;-78
2021/10/31 10:05:31;;;;;;;14.73;13.23;;;14.40;99.90;;;;;;4129369;28;20035;-78
2021/10/31 10:07:32;;;;;;;15.90;13.10;;;14.50;99.90;;;;;;4129858;28;20125;-78
2021/10/31 10:09:34;;;;;;;14.00;11.73;;;14.50;99.90;;;;;;4127849;28;20041;-78
2021/10/31 10:11:38;;;;;;;20.30;15.75;;;14.60;99.90;;;;;;4124633;28;20090;-78
2021/10/31 10:13:38;;;;;;;18.13;13.88;;;14.70;99.90;;;;;;4127864;28;20061;-79
2021/10/31 10:15:39;;;;;;;25.17;19.27;;;14.90;99.90;;;;;;4127853;28;20038;-78
2021/10/31 10:17:45;;;;;;;14.75;13.02;;;14.90;99.90;;;;;;4113728;28;20042;-79
2021/10/31 10:20:00;;;;;;;15.80;12.00;;;15.10;99.90;;;;;;4126238;28;20394;-79
2021/10/31 10:22:00;;;;;;;12.82;11.50;;;15.30;99.90;;;;;;4138392;28;20472;-79
2021/10/31 10:24:11;;;;;;;13.93;11.70;;;15.60;99.90;;;;;;4127110;28;20042;-79
2021/10/31 10:26:13;;;;;;;13.35;11.13;;;15.70;99.90;;;;;;4127922;28;20030;-79
2021/10/31 10:28:26;;;;;;;13.13;11.70;;;15.80;99.90;;;;;;4129375;28;20026;-79
2021/10/31 10:30:26;;;;;;;15.50;10.18;;;16.00;99.90;;;;;;4127461;28;20030;-79
2021/10/31 10:32:27;;;;;;;11.00;9.90;;;16.30;99.90;;;;;;4127946;28;20570;-80
2021/10/31 10:34:47;;;;;;;14.10;10.05;;;16.30;99.90;;;;;;4126263;28;20088;-79